createdAt,value
2022-11-03T00:01:48.641Z,4.80
2022-11-03T00:06:53.544Z,5.00
2022-11-03T00:11:55.891Z,5.10
2022-11-03T00:16:58.267Z,5.30
2022-11-03T00:22:00.701Z,5.30
2022-11-03T00:27:03.089Z,5.20
2022-11-03T00:32:05.985Z,5.00
2022-11-03T00:37:08.502Z,5.10
2022-11-03T00:42:10.938Z,5.20
2022-11-03T00:47:13.355Z,5.10
2022-11-03T00:57:19.365Z,4.90
2022-11-03T01:07:24.529Z,4.50
2022-11-03T01:12:27.998Z,4.30
2022-11-03T01:17:30.549Z,4.50
2022-11-03T01:22:32.946Z,4.50
2022-11-03T01:27:35.397Z,4.30
2022-11-03T01:32:37.721Z,4.20
2022-11-03T01:37:40.168Z,4.10
2022-11-03T01:42:42.628Z,4.10
2022-11-03T01:47:47.155Z,4.00
2022-11-03T01:52:53.929Z,3.80
2022-11-03T01:58:04.068Z,3.70
2022-11-03T02:03:06.803Z,3.70
2022-11-03T02:08:21.109Z,3.70
2022-11-03T02:13:25.768Z,3.60
2022-11-03T02:18:34.557Z,3.40
2022-11-03T02:23:47.649Z,3.30
2022-11-03T02:28:50.117Z,3.20
2022-11-03T02:34:08.341Z,3.30
2022-11-03T02:44:26.204Z,3.10
2022-11-03T02:49:28.650Z,2.90
2022-11-03T02:54:38.788Z,2.80
2022-11-03T02:59:51.449Z,2.80
2022-11-03T03:04:57.713Z,2.90
2022-11-03T03:10:23.857Z,2.70
2022-11-03T03:16:01.449Z,2.50
2022-11-03T03:21:21.108Z,2.40
2022-11-03T03:26:42.746Z,2.30
2022-11-03T03:31:53.662Z,2.20
2022-11-03T03:36:59.024Z,2.10
2022-11-03T03:42:02.862Z,2.20
2022-11-03T03:52:11.209Z,2.10
2022-11-03T03:57:20.394Z,2.00
2022-11-03T04:02:22.917Z,1.90
2022-11-03T04:07:44.024Z,1.80
2022-11-03T04:13:05.487Z,1.70
2022-11-03T04:18:26.872Z,1.80
2022-11-03T04:23:29.437Z,1.60
2022-11-03T04:28:32.109Z,1.60
2022-11-03T04:33:34.653Z,1.50
2022-11-03T04:38:38.138Z,1.40
2022-11-03T04:43:40.737Z,1.30
2022-11-03T04:48:44.209Z,1.30
2022-11-03T04:53:57.080Z,1.20
2022-11-03T04:58:59.603Z,1.10
2022-11-03T05:04:02.230Z,1.10
2022-11-03T05:09:31.555Z,1.00
2022-11-03T05:14:34.097Z,0.90
2022-11-03T05:19:39.947Z,0.90
2022-11-03T05:24:42.712Z,0.90
2022-11-03T05:29:45.765Z,0.90
2022-11-03T05:34:52.713Z,0.80
2022-11-03T05:40:25.649Z,0.90
2022-11-03T05:45:34.006Z,0.80
2022-11-03T05:50:36.707Z,0.80
2022-11-03T05:55:40.255Z,0.90
2022-11-03T06:00:48.073Z,0.90
2022-11-03T06:05:52.309Z,1.00
2022-11-03T06:10:58.287Z,1.10
2022-11-03T06:16:25.549Z,1.10
2022-11-03T06:21:28.057Z,1.20
2022-11-03T06:26:31.567Z,1.30
2022-11-03T06:31:34.534Z,1.50
2022-11-03T06:36:37.703Z,1.60
2022-11-03T06:41:40.313Z,1.80
2022-11-03T06:46:42.745Z,3.00
2022-11-03T06:51:45.300Z,3.60
2022-11-03T06:56:47.874Z,7.40
2022-11-03T07:01:56.037Z,8.80
2022-11-03T07:07:02.928Z,9.40
2022-11-03T07:12:15.163Z,9.50
2022-11-03T07:17:22.243Z,10.10
2022-11-03T07:22:26.301Z,10.10
2022-11-03T07:27:36.466Z,10.50
2022-11-03T07:32:39.822Z,10.80
2022-11-03T07:37:42.304Z,11.10
2022-11-03T07:42:44.997Z,11.10
2022-11-03T07:47:47.470Z,11.30
2022-11-03T07:52:50.046Z,11.60
2022-11-03T07:57:52.539Z,11.70
2022-11-03T08:03:00.401Z,12.10
2022-11-03T08:08:02.805Z,12.20
2022-11-03T08:13:05.418Z,12.60
2022-11-03T08:18:08.029Z,12.70
2022-11-03T08:23:25.359Z,12.70
2022-11-03T08:28:30.026Z,12.70
2022-11-03T08:33:33.792Z,12.70
2022-11-03T08:38:36.477Z,12.40
2022-11-03T08:43:38.928Z,8.70
2022-11-03T08:48:41.682Z,8.40
2022-11-03T08:53:44.178Z,8.30
2022-11-03T08:58:47.591Z,8.30
2022-11-03T09:03:50.105Z,8.50
2022-11-03T09:14:15.127Z,9.00
2022-11-03T09:19:17.684Z,10.10
2022-11-03T09:24:20.218Z,9.80
2022-11-03T09:29:22.843Z,9.60
2022-11-03T09:34:25.277Z,9.70
2022-11-03T09:39:27.719Z,10.10
2022-11-03T09:44:33.797Z,10.40
2022-11-03T09:49:36.776Z,10.80
2022-11-03T09:54:39.336Z,10.40
2022-11-03T09:59:45.367Z,10.40
2022-11-03T10:04:47.811Z,10.50
2022-11-03T10:09:52.220Z,10.50
2022-11-03T10:14:55.243Z,10.60
2022-11-03T10:19:58.760Z,11.10
2022-11-03T10:25:32.390Z,10.80
2022-11-03T10:31:15.727Z,10.80
2022-11-03T10:36:18.175Z,11.50
2022-11-03T10:41:26.093Z,11.50
2022-11-03T10:46:48.946Z,11.50
2022-11-03T10:51:53.187Z,12.40
2022-11-03T10:56:55.572Z,11.70
2022-11-03T11:01:59.092Z,11.70
2022-11-03T11:07:01.739Z,11.60
2022-11-03T11:12:25.446Z,11.50
2022-11-03T11:17:43.016Z,11.60
2022-11-03T11:22:46.084Z,12.40
2022-11-03T11:27:55.466Z,11.90
2022-11-03T11:33:15.096Z,12.00
2022-11-03T11:38:48.389Z,12.70
2022-11-03T11:43:50.798Z,12.80
2022-11-03T11:49:18.145Z,12.80
2022-11-03T11:59:26.004Z,14.20
2022-11-03T12:04:31.790Z,13.50
2022-11-03T12:09:34.502Z,12.90
2022-11-03T12:14:38.556Z,13.00
2022-11-03T12:19:44.069Z,13.70
2022-11-03T12:24:50.966Z,15.00
2022-11-03T12:30:02.693Z,13.70
2022-11-03T12:35:08.300Z,13.20
2022-11-03T12:40:13.792Z,13.20
2022-11-03T12:45:16.392Z,13.30
2022-11-03T12:50:18.878Z,13.00
2022-11-03T12:55:21.614Z,13.30
2022-11-03T13:00:24.171Z,13.50
2022-11-03T13:05:26.675Z,13.80
2022-11-03T13:10:29.118Z,14.50
2022-11-03T13:15:31.545Z,15.20
2022-11-03T13:20:34.471Z,14.10
2022-11-03T13:25:37.072Z,14.80
2022-11-03T13:30:40.530Z,15.20
2022-11-03T13:35:43.002Z,14.60
2022-11-03T13:41:06.960Z,15.10
2022-11-03T13:46:07.900Z,15.40
2022-11-03T13:51:12.217Z,14.50
2022-11-03T13:56:20.760Z,14.00
2022-11-03T14:01:25.055Z,14.00
2022-11-03T14:06:27.852Z,14.40
2022-11-03T14:11:48.814Z,14.50
2022-11-03T14:16:51.258Z,15.50
2022-11-03T14:21:53.713Z,14.60
2022-11-03T14:26:56.209Z,14.30
2022-11-03T14:32:00.033Z,14.90
2022-11-03T14:37:02.915Z,13.60
2022-11-03T14:42:09.898Z,13.60
2022-11-03T14:47:18.025Z,13.50
2022-11-03T14:52:20.633Z,12.70
2022-11-03T14:57:23.067Z,11.60
2022-11-03T15:02:25.472Z,11.50
2022-11-03T15:07:28.014Z,10.20
2022-11-03T15:12:30.593Z,9.60
2022-11-03T15:17:33.365Z,9.20
2022-11-03T15:27:58.864Z,8.50
2022-11-03T15:33:01.675Z,8.20
2022-11-03T15:38:04.362Z,8.10
2022-11-03T15:43:07.042Z,8.70
2022-11-03T15:48:09.922Z,7.90
2022-11-03T15:53:12.547Z,7.60
2022-11-03T15:58:14.963Z,7.40
2022-11-03T16:03:17.849Z,7.30
2022-11-03T16:08:20.331Z,7.30
2022-11-03T16:13:23.288Z,7.60
2022-11-03T16:18:25.898Z,7.70
2022-11-03T16:23:28.396Z,8.10
2022-11-03T16:28:30.929Z,8.10
2022-11-03T16:33:33.386Z,8.00
2022-11-03T16:38:35.975Z,8.60
2022-11-03T16:43:38.463Z,9.10
2022-11-03T16:48:40.871Z,9.70
2022-11-03T16:53:43.462Z,10.50
2022-11-03T16:58:46.130Z,9.90
2022-11-03T17:03:48.577Z,10.30
2022-11-03T17:09:01.207Z,12.00
2022-11-03T17:14:14.210Z,12.40
2022-11-03T17:19:16.924Z,11.40
2022-11-03T17:24:20.311Z,11.60
2022-11-03T17:29:30.380Z,12.20
2022-11-03T17:34:33.199Z,12.00
2022-11-03T17:39:38.009Z,11.80
2022-11-03T17:44:40.603Z,11.90
2022-11-03T17:49:43.604Z,12.50
2022-11-03T17:54:46.213Z,12.40
2022-11-03T17:59:51.150Z,11.90
2022-11-03T18:05:32.003Z,13.00
2022-11-03T18:10:38.179Z,13.70
2022-11-03T18:15:42.148Z,12.90
2022-11-03T18:20:53.196Z,12.40
2022-11-03T18:25:56.638Z,12.50
2022-11-03T18:30:59.545Z,12.90
2022-11-03T18:36:04.205Z,12.90
2022-11-03T18:41:32.643Z,12.80
2022-11-03T18:46:35.319Z,12.70
2022-11-03T18:51:38.285Z,12.30
2022-11-03T18:56:41.001Z,12.50
2022-11-03T19:01:44.216Z,12.70
2022-11-03T19:06:49.342Z,14.20
2022-11-03T19:11:55.930Z,13.50
2022-11-03T19:22:23.953Z,13.90
2022-11-03T19:27:29.015Z,12.40
2022-11-03T19:32:35.844Z,11.60
2022-11-03T19:37:38.482Z,10.70
2022-11-03T19:42:41.207Z,10.80
2022-11-03T19:48:10.718Z,10.10
2022-11-03T19:53:08.397Z,10.30
2022-11-03T19:58:23.016Z,10.20
2022-11-03T20:03:26.167Z,9.60
2022-11-03T20:08:32.304Z,9.80
2022-11-03T20:13:40.778Z,9.70
2022-11-03T20:18:44.005Z,10.70
2022-11-03T20:23:48.486Z,10.20
2022-11-03T20:28:53.105Z,9.40
2022-11-03T20:33:55.689Z,9.40
2022-11-03T20:39:01.252Z,8.80
2022-11-03T20:44:03.978Z,8.50
2022-11-03T20:49:06.643Z,8.60
2022-11-03T20:54:15.860Z,8.40
2022-11-03T20:59:18.623Z,8.80
2022-11-03T21:04:21.181Z,9.00
2022-11-03T21:09:23.946Z,10.80
2022-11-03T21:14:29.946Z,13.80
2022-11-03T21:19:51.367Z,15.10
2022-11-03T21:25:03.324Z,15.50
2022-11-03T21:30:06.819Z,15.80
2022-11-03T21:35:19.777Z,15.60
2022-11-03T21:40:22.428Z,16.00
2022-11-03T21:45:25.146Z,16.00
2022-11-03T21:50:27.551Z,15.70
2022-11-03T21:55:29.994Z,15.80
2022-11-03T22:00:33.171Z,15.70
2022-11-03T22:05:35.614Z,16.20
2022-11-03T22:10:39.661Z,16.20
2022-11-03T22:16:00.791Z,16.30
2022-11-03T22:21:21.582Z,16.10
2022-11-03T22:26:42.653Z,16.10
2022-11-03T22:31:45.587Z,16.20
2022-11-03T22:36:48.037Z,16.40
2022-11-03T22:42:09.145Z,16.20
2022-11-03T22:47:13.340Z,16.10
2022-11-03T22:52:18.311Z,15.90
2022-11-03T22:57:20.927Z,16.20
2022-11-03T23:02:23.529Z,16.50
2022-11-03T23:07:31.589Z,16.30
2022-11-03T23:12:35.578Z,16.30
2022-11-03T23:17:56.367Z,16.20
2022-11-03T23:22:58.775Z,16.20
2022-11-03T23:28:01.287Z,16.30
2022-11-03T23:33:03.712Z,16.20
2022-11-03T23:38:06.341Z,16.50
2022-11-03T23:43:08.997Z,16.50
2022-11-03T23:48:29.989Z,16.10
2022-11-03T23:53:32.411Z,15.90
2022-11-03T23:58:34.821Z,15.60
